sensor_id;sensor_type;location;lat;lon;timestamp;pressure;altitude;pressure_sealevel;temperature;humidity
48652;BME280;34442;52.362;-1.302;2023-05-25T00:00:10;101447.03;;;12.09;100.00
48652;BME280;34442;52.362;-1.302;2023-05-25T00:02:37;101448.00;;;12.02;100.00
48652;BME280;34442;52.362;-1.302;2023-05-25T00:05:04;101455.63;;;11.98;100.00
48652;BME280;34442;52.362;-1.302;2023-05-25T00:07:30;101444.19;;;11.96;100.00
48652;BME280;34442;52.362;-1.302;2023-05-25T00:09:55;101451.81;;;11.92;100.00
48652;BME280;34442;52.362;-1.302;2023-05-25T00:12:21;101448.66;;;11.89;100.00
48652;BME280;34442;52.362;-1.302;2023-05-25T00:14:46;101457.59;;;11.89;100.00
48652;BME280;34442;52.362;-1.302;2023-05-25T00:17:12;101447.56;;;11.83;100.00
48652;BME280;34442;52.362;-1.302;2023-05-25T00:19:38;101448.38;;;11.84;100.00
48652;BME280;34442;52.362;-1.302;2023-05-25T00:22:10;101445.88;;;11.82;100.00
48652;BME280;34442;52.362;-1.302;2023-05-25T00:24:36;101449.59;;;11.81;100.00
48652;BME280;34442;52.362;-1.302;2023-05-25T00:27:02;101441.34;;;11.83;100.00
48652;BME280;34442;52.362;-1.302;2023-05-25T00:29:28;101458.50;;;11.82;100.00
48652;BME280;34442;52.362;-1.302;2023-05-25T00:31:53;101460.19;;;11.83;100.00
48652;BME280;34442;52.362;-1.302;2023-05-25T00:34:19;101460.91;;;11.77;100.00
48652;BME280;34442;52.362;-1.302;2023-05-25T00:36:45;101463.22;;;11.80;100.00
48652;BME280;34442;52.362;-1.302;2023-05-25T00:39:18;101471.81;;;11.83;100.00
48652;BME280;34442;52.362;-1.302;2023-05-25T00:41:45;101468.28;;;11.83;100.00
48652;BME280;34442;52.362;-1.302;2023-05-25T00:44:11;101465.09;;;11.79;100.00
48652;BME280;34442;52.362;-1.302;2023-05-25T00:46:47;101472.34;;;11.79;100.00
48652;BME280;34442;52.362;-1.302;2023-05-25T00:49:14;101474.84;;;11.80;100.00
48652;BME280;34442;52.362;-1.302;2023-05-25T00:51:41;101472.13;;;11.80;100.00
48652;BME280;34442;52.362;-1.302;2023-05-25T00:54:11;101473.84;;;11.81;100.00
48652;BME280;34442;52.362;-1.302;2023-05-25T00:56:39;101470.47;;;11.79;100.00
48652;BME280;34442;52.362;-1.302;2023-05-25T00:59:05;101470.97;;;11.83;100.00
48652;BME280;34442;52.362;-1.302;2023-05-25T01:01:34;101480.44;;;11.94;100.00
48652;BME280;34442;52.362;-1.302;2023-05-25T01:04:05;101465.47;;;12.06;100.00
48652;BME280;34442;52.362;-1.302;2023-05-25T01:06:32;101477.34;;;12.11;100.00
48652;BME280;34442;52.362;-1.302;2023-05-25T01:09:03;101483.34;;;12.13;100.00
48652;BME280;34442;52.362;-1.302;2023-05-25T01:11:35;101480.94;;;12.19;100.00
48652;BME280;34442;52.362;-1.302;2023-05-25T01:14:01;101479.16;;;12.26;100.00
48652;BME280;34442;52.362;-1.302;2023-05-25T01:16:27;101489.63;;;12.35;100.00
48652;BME280;34442;52.362;-1.302;2023-05-25T01:18:54;101492.84;;;12.46;100.00
48652;BME280;34442;52.362;-1.302;2023-05-25T01:24:30;101492.22;;;12.65;100.00
48652;BME280;34442;52.362;-1.302;2023-05-25T01:27:03;101491.63;;;12.70;100.00
48652;BME280;34442;52.362;-1.302;2023-05-25T01:29:32;101496.28;;;12.76;100.00
48652;BME280;34442;52.362;-1.302;2023-05-25T01:31:58;101490.47;;;12.79;100.00
48652;BME280;34442;52.362;-1.302;2023-05-25T01:34:25;101493.16;;;12.79;100.00
48652;BME280;34442;52.362;-1.302;2023-05-25T01:36:50;101496.69;;;12.79;100.00
48652;BME280;34442;52.362;-1.302;2023-05-25T01:39:20;101489.06;;;12.83;100.00
48652;BME280;34442;52.362;-1.302;2023-05-25T01:41:46;101497.34;;;12.81;100.00
48652;BME280;34442;52.362;-1.302;2023-05-25T01:44:11;101488.19;;;12.76;100.00
48652;BME280;34442;52.362;-1.302;2023-05-25T01:46:37;101488.19;;;12.76;100.00
48652;BME280;34442;52.362;-1.302;2023-05-25T01:52:03;101491.38;;;12.86;100.00
48652;BME280;34442;52.362;-1.302;2023-05-25T01:54:36;101487.47;;;12.88;100.00
48652;BME280;34442;52.362;-1.302;2023-05-25T01:57:06;101490.16;;;12.88;100.00
48652;BME280;34442;52.362;-1.302;2023-05-25T01:59:33;101497.00;;;12.91;100.00
48652;BME280;34442;52.362;-1.302;2023-05-25T02:02:00;101491.44;;;12.93;100.00
48652;BME280;34442;52.362;-1.302;2023-05-25T02:04:26;101494.25;;;13.06;100.00
48652;BME280;34442;52.362;-1.302;2023-05-25T02:06:52;101491.56;;;13.12;100.00
48652;BME280;34442;52.362;-1.302;2023-05-25T02:09:18;101476.03;;;13.14;100.00
48652;BME280;34442;52.362;-1.302;2023-05-25T02:11:43;101479.56;;;13.15;100.00
48652;BME280;34442;52.362;-1.302;2023-05-25T02:14:09;101479.78;;;13.20;100.00
48652;BME280;34442;52.362;-1.302;2023-05-25T02:16:35;101478.41;;;13.24;100.00
48652;BME280;34442;52.362;-1.302;2023-05-25T02:19:00;101480.44;;;13.22;100.00
48652;BME280;34442;52.362;-1.302;2023-05-25T02:21:26;101491.91;;;13.24;100.00
48652;BME280;34442;52.362;-1.302;2023-05-25T02:23:52;101492.69;;;13.18;100.00
48652;BME280;34442;52.362;-1.302;2023-05-25T02:26:18;101490.34;;;13.15;100.00
48652;BME280;34442;52.362;-1.302;2023-05-25T02:28:44;101489.09;;;13.11;100.00
48652;BME280;34442;52.362;-1.302;2023-05-25T02:31:10;101492.63;;;13.11;100.00
48652;BME280;34442;52.362;-1.302;2023-05-25T02:33:35;101497.78;;;13.06;100.00
48652;BME280;34442;52.362;-1.302;2023-05-25T02:36:01;101493.78;;;13.02;100.00
48652;BME280;34442;52.362;-1.302;2023-05-25T02:38:26;101496.72;;;13.07;100.00
48652;BME280;34442;52.362;-1.302;2023-05-25T02:40:52;101500.53;;;13.13;100.00
48652;BME280;34442;52.362;-1.302;2023-05-25T02:43:17;101495.75;;;13.15;100.00
48652;BME280;34442;52.362;-1.302;2023-05-25T02:45:43;101501.81;;;13.17;100.00
48652;BME280;34442;52.362;-1.302;2023-05-25T02:48:08;101494.34;;;13.19;100.00
48652;BME280;34442;52.362;-1.302;2023-05-25T02:50:34;101489.97;;;13.18;100.00
48652;BME280;34442;52.362;-1.302;2023-05-25T02:53:00;101496.00;;;13.20;100.00
48652;BME280;34442;52.362;-1.302;2023-05-25T02:55:25;101498.91;;;13.19;100.00
48652;BME280;34442;52.362;-1.302;2023-05-25T02:57:51;101498.41;;;13.08;100.00
48652;BME280;34442;52.362;-1.302;2023-05-25T03:00:17;101497.56;;;13.08;100.00
48652;BME280;34442;52.362;-1.302;2023-05-25T03:02:44;101496.13;;;13.05;100.00
48652;BME280;34442;52.362;-1.302;2023-05-25T03:05:11;101501.06;;;13.02;100.00
48652;BME280;34442;52.362;-1.302;2023-05-25T03:07:36;101491.53;;;13.06;100.00
48652;BME280;34442;52.362;-1.302;2023-05-25T03:10:02;101499.25;;;13.09;100.00
48652;BME280;34442;52.362;-1.302;2023-05-25T03:12:27;101493.59;;;13.04;100.00
48652;BME280;34442;52.362;-1.302;2023-05-25T03:14:53;101498.84;;;13.12;100.00
48652;BME280;34442;52.362;-1.302;2023-05-25T03:17:18;101499.69;;;13.12;100.00
48652;BME280;34442;52.362;-1.302;2023-05-25T03:19:44;101501.81;;;13.17;100.00
48652;BME280;34442;52.362;-1.302;2023-05-25T03:22:09;101500.78;;;13.18;100.00
48652;BME280;34442;52.362;-1.302;2023-05-25T03:24:35;101501.22;;;13.22;100.00
48652;BME280;34442;52.362;-1.302;2023-05-25T03:27:00;101510.81;;;13.24;100.00
48652;BME280;34442;52.362;-1.302;2023-05-25T03:29:26;101493.94;;;13.22;100.00
48652;BME280;34442;52.362;-1.302;2023-05-25T03:31:51;101502.91;;;13.23;100.00
48652;BME280;34442;52.362;-1.302;2023-05-25T03:34:17;101513.97;;;13.28;100.00
48652;BME280;34442;52.362;-1.302;2023-05-25T03:36:42;101495.88;;;13.28;100.00
48652;BME280;34442;52.362;-1.302;2023-05-25T03:39:10;101501.09;;;13.30;100.00
48652;BME280;34442;52.362;-1.302;2023-05-25T03:41:36;101491.59;;;13.34;100.00
48652;BME280;34442;52.362;-1.302;2023-05-25T03:44:01;101495.72;;;13.36;100.00
48652;BME280;34442;52.362;-1.302;2023-05-25T03:46:27;101498.03;;;13.39;100.00
48652;BME280;34442;52.362;-1.302;2023-05-25T03:48:52;101489.13;;;13.39;100.00
48652;BME280;34442;52.362;-1.302;2023-05-25T03:51:17;101499.53;;;13.42;100.00
48652;BME280;34442;52.362;-1.302;2023-05-25T03:53:43;101491.22;;;13.44;100.00
48652;BME280;34442;52.362;-1.302;2023-05-25T03:56:08;101498.09;;;13.46;100.00
48652;BME280;34442;52.362;-1.302;2023-05-25T03:58:34;101496.22;;;13.47;100.00
48652;BME280;34442;52.362;-1.302;2023-05-25T04:00:59;101497.00;;;13.40;100.00
48652;BME280;34442;52.362;-1.302;2023-05-25T04:03:24;101498.28;;;13.45;100.00
48652;BME280;34442;52.362;-1.302;2023-05-25T04:05:51;101502.63;;;13.39;100.00
48652;BME280;34442;52.362;-1.302;2023-05-25T04:08:17;101500.69;;;13.33;100.00
48652;BME280;34442;52.362;-1.302;2023-05-25T04:10:44;101515.00;;;13.27;100.00
48652;BME280;34442;52.362;-1.302;2023-05-25T04:13:10;101501.41;;;13.20;100.00
48652;BME280;34442;52.362;-1.302;2023-05-25T04:15:36;101506.81;;;13.20;100.00
48652;BME280;34442;52.362;-1.302;2023-05-25T04:18:01;101511.19;;;13.21;100.00
48652;BME280;34442;52.362;-1.302;2023-05-25T04:20:27;101520.91;;;13.15;100.00
48652;BME280;34442;52.362;-1.302;2023-05-25T04:22:53;101508.44;;;13.14;100.00
48652;BME280;34442;52.362;-1.302;2023-05-25T04:25:19;101516.97;;;13.18;100.00
48652;BME280;34442;52.362;-1.302;2023-05-25T04:27:45;101515.38;;;13.24;100.00
48652;BME280;34442;52.362;-1.302;2023-05-25T04:30:11;101517.91;;;13.25;100.00
48652;BME280;34442;52.362;-1.302;2023-05-25T04:32:37;101527.66;;;13.26;100.00
48652;BME280;34442;52.362;-1.302;2023-05-25T04:35:03;101523.94;;;13.27;100.00
48652;BME280;34442;52.362;-1.302;2023-05-25T04:37:31;101528.56;;;13.33;100.00
48652;BME280;34442;52.362;-1.302;2023-05-25T04:39:57;101539.22;;;13.42;100.00
48652;BME280;34442;52.362;-1.302;2023-05-25T04:42:23;101529.72;;;13.52;100.00
48652;BME280;34442;52.362;-1.302;2023-05-25T04:44:49;101540.72;;;13.51;100.00
48652;BME280;34442;52.362;-1.302;2023-05-25T04:47:17;101538.72;;;13.59;100.00
48652;BME280;34442;52.362;-1.302;2023-05-25T04:49:43;101545.19;;;13.65;100.00
48652;BME280;34442;52.362;-1.302;2023-05-25T04:52:09;101545.47;;;13.77;100.00
48652;BME280;34442;52.362;-1.302;2023-05-25T04:54:34;101548.84;;;13.85;100.00
48652;BME280;34442;52.362;-1.302;2023-05-25T04:57:01;101557.81;;;13.93;100.00
48652;BME280;34442;52.362;-1.302;2023-05-25T04:59:27;101558.44;;;13.88;100.00
48652;BME280;34442;52.362;-1.302;2023-05-25T05:01:52;101563.84;;;13.95;100.00
48652;BME280;34442;52.362;-1.302;2023-05-25T05:04:17;101564.09;;;14.00;100.00
48652;BME280;34442;52.362;-1.302;2023-05-25T05:06:43;101563.72;;;14.09;100.00
48652;BME280;34442;52.362;-1.302;2023-05-25T05:09:08;101558.53;;;14.14;100.00
48652;BME280;34442;52.362;-1.302;2023-05-25T05:11:34;101563.13;;;14.14;100.00
48652;BME280;34442;52.362;-1.302;2023-05-25T05:13:59;101566.50;;;14.23;100.00
48652;BME280;34442;52.362;-1.302;2023-05-25T05:16:25;101566.56;;;14.43;100.00
48652;BME280;34442;52.362;-1.302;2023-05-25T05:18:50;101560.63;;;14.54;100.00
48652;BME280;34442;52.362;-1.302;2023-05-25T05:21:16;101564.38;;;14.53;100.00
48652;BME280;34442;52.362;-1.302;2023-05-25T05:23:42;101561.91;;;14.71;100.00
48652;BME280;34442;52.362;-1.302;2023-05-25T05:26:07;101565.03;;;14.75;100.00
48652;BME280;34442;52.362;-1.302;2023-05-25T05:28:38;101560.72;;;14.94;100.00
48652;BME280;34442;52.362;-1.302;2023-05-25T05:31:03;101560.69;;;15.00;100.00
48652;BME280;34442;52.362;-1.302;2023-05-25T05:33:29;101560.50;;;15.02;100.00
48652;BME280;34442;52.362;-1.302;2023-05-25T05:35:55;101567.19;;;15.32;100.00
48652;BME280;34442;52.362;-1.302;2023-05-25T05:38:20;101560.06;;;15.78;100.00
48652;BME280;34442;52.362;-1.302;2023-05-25T05:40:46;101572.13;;;15.95;100.00
48652;BME280;34442;52.362;-1.302;2023-05-25T05:43:12;101570.22;;;16.54;100.00
48652;BME280;34442;52.362;-1.302;2023-05-25T05:45:39;101577.72;;;16.58;100.00
48652;BME280;34442;52.362;-1.302;2023-05-25T05:48:05;101579.09;;;16.81;100.00
48652;BME280;34442;52.362;-1.302;2023-05-25T05:50:35;101580.81;;;16.75;98.64
48652;BME280;34442;52.362;-1.302;2023-05-25T05:53:00;101582.75;;;17.00;97.90
48652;BME280;34442;52.362;-1.302;2023-05-25T05:55:25;101576.25;;;17.26;96.07
48652;BME280;34442;52.362;-1.302;2023-05-25T05:57:51;101570.91;;;17.63;92.82
48652;BME280;34442;52.362;-1.302;2023-05-25T06:00:17;101577.75;;;17.22;94.20
48652;BME280;34442;52.362;-1.302;2023-05-25T06:02:42;101581.25;;;17.29;93.75
48652;BME280;34442;52.362;-1.302;2023-05-25T06:05:08;101585.44;;;17.00;95.23
48652;BME280;34442;52.362;-1.302;2023-05-25T06:07:33;101592.63;;;16.88;96.26
48652;BME280;34442;52.362;-1.302;2023-05-25T06:10:00;101587.00;;;17.14;95.11
48652;BME280;34442;52.362;-1.302;2023-05-25T06:12:26;101585.28;;;17.20;93.76
48652;BME280;34442;52.362;-1.302;2023-05-25T06:14:51;101585.69;;;17.48;92.30
48652;BME280;34442;52.362;-1.302;2023-05-25T06:17:17;101582.31;;;17.78;91.06
48652;BME280;34442;52.362;-1.302;2023-05-25T06:19:43;101583.91;;;18.04;88.86
48652;BME280;34442;52.362;-1.302;2023-05-25T06:22:09;101580.94;;;18.42;85.54
48652;BME280;34442;52.362;-1.302;2023-05-25T06:24:34;101586.50;;;18.66;80.80
48652;BME280;34442;52.362;-1.302;2023-05-25T06:27:00;101601.75;;;18.18;85.19
48652;BME280;34442;52.362;-1.302;2023-05-25T06:29:27;101594.78;;;17.60;88.70
48652;BME280;34442;52.362;-1.302;2023-05-25T06:31:53;101591.19;;;17.17;90.22
48652;BME280;34442;52.362;-1.302;2023-05-25T06:34:18;101589.97;;;17.13;90.99
48652;BME280;34442;52.362;-1.302;2023-05-25T06:36:44;101593.66;;;17.18;91.44
48652;BME280;34442;52.362;-1.302;2023-05-25T06:39:11;101602.06;;;17.17;91.59
48652;BME280;34442;52.362;-1.302;2023-05-25T06:41:39;101603.59;;;16.99;92.60
48652;BME280;34442;52.362;-1.302;2023-05-25T06:44:05;101603.78;;;16.73;94.46
48652;BME280;34442;52.362;-1.302;2023-05-25T06:46:31;101608.34;;;16.27;95.67
48652;BME280;34442;52.362;-1.302;2023-05-25T06:49:01;101601.94;;;15.95;97.99
48652;BME280;34442;52.362;-1.302;2023-05-25T06:51:27;101608.69;;;15.66;98.92
48652;BME280;34442;52.362;-1.302;2023-05-25T06:53:56;101607.84;;;15.72;98.52
48652;BME280;34442;52.362;-1.302;2023-05-25T06:56:22;101612.41;;;15.78;98.09
48652;BME280;34442;52.362;-1.302;2023-05-25T06:58:48;101612.19;;;15.80;98.19
48652;BME280;34442;52.362;-1.302;2023-05-25T07:01:14;101613.03;;;15.87;97.14
48652;BME280;34442;52.362;-1.302;2023-05-25T07:03:40;101619.31;;;15.81;96.91
48652;BME280;34442;52.362;-1.302;2023-05-25T07:06:07;101615.97;;;15.72;97.00
48652;BME280;34442;52.362;-1.302;2023-05-25T07:08:32;101609.06;;;15.83;95.83
48652;BME280;34442;52.362;-1.302;2023-05-25T07:10:58;101624.50;;;15.56;97.16
48652;BME280;34442;52.362;-1.302;2023-05-25T07:13:23;101623.88;;;15.67;96.55
48652;BME280;34442;52.362;-1.302;2023-05-25T07:15:49;101629.31;;;15.60;96.11
48652;BME280;34442;52.362;-1.302;2023-05-25T07:18:17;101639.94;;;15.49;96.73
48652;BME280;34442;52.362;-1.302;2023-05-25T07:20:42;101632.66;;;15.69;95.85
48652;BME280;34442;52.362;-1.302;2023-05-25T07:23:10;101633.50;;;15.76;95.02
48652;BME280;34442;52.362;-1.302;2023-05-25T07:25:40;101634.53;;;15.82;94.82
48652;BME280;34442;52.362;-1.302;2023-05-25T07:28:06;101638.06;;;15.76;94.79
48652;BME280;34442;52.362;-1.302;2023-05-25T07:30:35;101646.81;;;15.71;94.80
48652;BME280;34442;52.362;-1.302;2023-05-25T07:33:00;101640.78;;;15.82;94.74
48652;BME280;34442;52.362;-1.302;2023-05-25T07:35:26;101646.84;;;15.84;93.81
48652;BME280;34442;52.362;-1.302;2023-05-25T07:37:59;101648.06;;;15.95;91.35
48652;BME280;34442;52.362;-1.302;2023-05-25T07:40:24;101637.63;;;15.99;91.37
48652;BME280;34442;52.362;-1.302;2023-05-25T07:42:50;101642.00;;;16.13;91.63
48652;BME280;34442;52.362;-1.302;2023-05-25T07:45:16;101652.84;;;16.13;90.14
48652;BME280;34442;52.362;-1.302;2023-05-25T07:47:41;101645.72;;;16.12;90.76
48652;BME280;34442;52.362;-1.302;2023-05-25T07:50:07;101648.66;;;16.10;89.46
48652;BME280;34442;52.362;-1.302;2023-05-25T07:52:33;101648.22;;;16.20;90.16
48652;BME280;34442;52.362;-1.302;2023-05-25T07:54:58;101651.75;;;16.27;91.19
48652;BME280;34442;52.362;-1.302;2023-05-25T07:57:23;101656.72;;;16.44;89.71
48652;BME280;34442;52.362;-1.302;2023-05-25T07:59:49;101664.97;;;16.69;89.98
48652;BME280;34442;52.362;-1.302;2023-05-25T08:02:15;101657.19;;;16.85;88.97
48652;BME280;34442;52.362;-1.302;2023-05-25T08:04:41;101659.97;;;16.66;88.70
48652;BME280;34442;52.362;-1.302;2023-05-25T08:07:06;101655.28;;;16.93;87.19
48652;BME280;34442;52.362;-1.302;2023-05-25T08:09:31;101656.09;;;17.00;86.11
48652;BME280;34442;52.362;-1.302;2023-05-25T08:11:57;101656.41;;;17.17;84.98
48652;BME280;34442;52.362;-1.302;2023-05-25T08:14:22;101660.50;;;17.26;83.93
48652;BME280;34442;52.362;-1.302;2023-05-25T08:16:49;101657.66;;;17.46;82.86
48652;BME280;34442;52.362;-1.302;2023-05-25T08:19:15;101658.22;;;17.54;82.43
48652;BME280;34442;52.362;-1.302;2023-05-25T08:21:40;101654.44;;;17.55;82.14
48652;BME280;34442;52.362;-1.302;2023-05-25T08:24:09;101657.97;;;17.56;80.76
48652;BME280;34442;52.362;-1.302;2023-05-25T08:26:34;101661.78;;;17.80;80.65
48652;BME280;34442;52.362;-1.302;2023-05-25T08:29:04;101656.03;;;17.95;77.98
48652;BME280;34442;52.362;-1.302;2023-05-25T08:31:33;101654.03;;;17.83;78.68
48652;BME280;34442;52.362;-1.302;2023-05-25T08:33:59;101659.31;;;17.78;78.44
48652;BME280;34442;52.362;-1.302;2023-05-25T08:36:25;101652.91;;;17.91;77.99
48652;BME280;34442;52.362;-1.302;2023-05-25T08:38:51;101660.72;;;17.81;77.96
48652;BME280;34442;52.362;-1.302;2023-05-25T08:41:18;101664.94;;;18.02;77.10
48652;BME280;34442;52.362;-1.302;2023-05-25T08:43:44;101657.25;;;18.17;76.53
48652;BME280;34442;52.362;-1.302;2023-05-25T08:46:10;101662.25;;;18.39;75.58
48652;BME280;34442;52.362;-1.302;2023-05-25T08:48:36;101651.22;;;18.70;74.47
48652;BME280;34442;52.362;-1.302;2023-05-25T08:51:07;101658.25;;;18.78;73.40
48652;BME280;34442;52.362;-1.302;2023-05-25T08:53:39;101659.59;;;18.87;71.00
48652;BME280;34442;52.362;-1.302;2023-05-25T08:56:18;101656.34;;;19.08;71.95
48652;BME280;34442;52.362;-1.302;2023-05-25T08:58:56;101666.16;;;18.98;69.81
48652;BME280;34442;52.362;-1.302;2023-05-25T09:01:25;101678.00;;;18.73;73.61
48652;BME280;34442;52.362;-1.302;2023-05-25T09:03:56;101678.78;;;18.92;73.98
48652;BME280;34442;52.362;-1.302;2023-05-25T09:06:24;101673.09;;;18.02;79.96
48652;BME280;34442;52.362;-1.302;2023-05-25T09:08:51;101679.19;;;17.72;82.76
48652;BME280;34442;52.362;-1.302;2023-05-25T09:11:18;101680.13;;;17.59;84.25
48652;BME280;34442;52.362;-1.302;2023-05-25T09:13:44;101684.53;;;17.85;84.52
48652;BME280;34442;52.362;-1.302;2023-05-25T09:16:09;101691.22;;;17.90;84.09
48652;BME280;34442;52.362;-1.302;2023-05-25T09:18:35;101688.38;;;18.03;82.88
48652;BME280;34442;52.362;-1.302;2023-05-25T09:21:00;101686.97;;;18.19;82.13
48652;BME280;34442;52.362;-1.302;2023-05-25T09:23:27;101688.63;;;18.38;81.45
48652;BME280;34442;52.362;-1.302;2023-05-25T09:25:56;101693.16;;;18.26;80.60
48652;BME280;34442;52.362;-1.302;2023-05-25T09:28:22;101698.31;;;18.16;81.87
48652;BME280;34442;52.362;-1.302;2023-05-25T09:30:48;101700.97;;;17.97;82.49
48652;BME280;34442;52.362;-1.302;2023-05-25T09:33:14;101696.56;;;18.21;81.80
48652;BME280;34442;52.362;-1.302;2023-05-25T09:35:44;101707.88;;;18.00;82.58
48652;BME280;34442;52.362;-1.302;2023-05-25T09:38:14;101707.91;;;17.93;82.05
48652;BME280;34442;52.362;-1.302;2023-05-25T09:40:42;101703.69;;;17.72;83.94
48652;BME280;34442;52.362;-1.302;2023-05-25T09:43:08;101710.06;;;17.91;82.77
48652;BME280;34442;52.362;-1.302;2023-05-25T09:45:35;101703.84;;;18.27;81.11
48652;BME280;34442;52.362;-1.302;2023-05-25T09:48:01;101708.56;;;18.14;81.69
48652;BME280;34442;52.362;-1.302;2023-05-25T09:50:28;101708.38;;;18.15;80.85
48652;BME280;34442;52.362;-1.302;2023-05-25T09:52:59;101699.03;;;18.48;79.33
48652;BME280;34442;52.362;-1.302;2023-05-25T09:55:28;101706.59;;;18.64;78.21
48652;BME280;34442;52.362;-1.302;2023-05-25T09:57:54;101703.41;;;18.49;79.72
48652;BME280;34442;52.362;-1.302;2023-05-25T10:00:22;101708.53;;;18.39;80.22
48652;BME280;34442;52.362;-1.302;2023-05-25T10:02:53;101707.81;;;18.06;73.21
48652;BME280;34442;52.362;-1.302;2023-05-25T10:05:19;101703.16;;;17.89;82.17
48652;BME280;34442;52.362;-1.302;2023-05-25T10:07:49;101707.16;;;18.29;80.85
48652;BME280;34442;52.362;-1.302;2023-05-25T10:10:15;101708.72;;;18.44;80.91
48652;BME280;34442;52.362;-1.302;2023-05-25T10:12:44;101718.69;;;18.68;78.54
48652;BME280;34442;52.362;-1.302;2023-05-25T10:15:13;101706.16;;;18.86;77.30
48652;BME280;34442;52.362;-1.302;2023-05-25T10:17:47;101713.69;;;19.32;76.48
48652;BME280;34442;52.362;-1.302;2023-05-25T10:20:15;101707.16;;;19.03;77.84
48652;BME280;34442;52.362;-1.302;2023-05-25T10:22:51;101714.34;;;19.16;75.70
48652;BME280;34442;52.362;-1.302;2023-05-25T10:26:06;101711.16;;;18.89;79.02
48652;BME280;34442;52.362;-1.302;2023-05-25T10:30:42;101705.97;;;18.44;80.64
48652;BME280;34442;52.362;-1.302;2023-05-25T10:33:11;101718.34;;;18.21;80.20
48652;BME280;34442;52.362;-1.302;2023-05-25T10:35:42;101711.81;;;18.04;79.44
48652;BME280;34442;52.362;-1.302;2023-05-25T10:38:08;101712.03;;;18.27;79.69
48652;BME280;34442;52.362;-1.302;2023-05-25T10:40:34;101718.16;;;18.59;78.12
48652;BME280;34442;52.362;-1.302;2023-05-25T10:43:02;101718.34;;;19.13;75.34
48652;BME280;34442;52.362;-1.302;2023-05-25T10:45:29;101723.31;;;19.34;75.59
48652;BME280;34442;52.362;-1.302;2023-05-25T10:47:54;101724.81;;;19.00;76.47
48652;BME280;34442;52.362;-1.302;2023-05-25T10:50:34;101725.88;;;18.99;71.48
48652;BME280;34442;52.362;-1.302;2023-05-25T10:53:20;101731.56;;;18.79;70.24
48652;BME280;34442;52.362;-1.302;2023-05-25T10:58:19;101724.91;;;19.24;75.29
48652;BME280;34442;52.362;-1.302;2023-05-25T11:01:10;101733.22;;;19.29;69.25
48652;BME280;34442;52.362;-1.302;2023-05-25T11:06:14;101731.97;;;19.73;72.98
48652;BME280;34442;52.362;-1.302;2023-05-25T11:08:54;101730.88;;;19.63;69.69
48652;BME280;34442;52.362;-1.302;2023-05-25T11:11:21;101724.97;;;19.77;72.20
48652;BME280;34442;52.362;-1.302;2023-05-25T11:13:48;101717.03;;;19.76;72.35
48652;BME280;34442;52.362;-1.302;2023-05-25T11:18:53;101727.53;;;19.00;73.75
48652;BME280;34442;52.362;-1.302;2023-05-25T11:23:59;101735.22;;;16.45;97.90
48652;BME280;34442;52.362;-1.302;2023-05-25T11:26:32;101719.22;;;15.91;100.00
48652;BME280;34442;52.362;-1.302;2023-05-25T11:28:59;101720.47;;;15.95;100.00
48652;BME280;34442;52.362;-1.302;2023-05-25T11:31:29;101713.34;;;15.67;100.00
48652;BME280;34442;52.362;-1.302;2023-05-25T11:33:57;101725.81;;;15.55;100.00
48652;BME280;34442;52.362;-1.302;2023-05-25T11:36:23;101718.78;;;15.87;100.00
48652;BME280;34442;52.362;-1.302;2023-05-25T11:38:49;101718.41;;;15.97;100.00
48652;BME280;34442;52.362;-1.302;2023-05-25T11:41:21;101721.91;;;15.84;100.00
48652;BME280;34442;52.362;-1.302;2023-05-25T11:43:48;101712.75;;;15.85;100.00
48652;BME280;34442;52.362;-1.302;2023-05-25T11:46:16;101711.50;;;15.87;100.00
48652;BME280;34442;52.362;-1.302;2023-05-25T11:48:51;101719.44;;;16.02;100.00
48652;BME280;34442;52.362;-1.302;2023-05-25T11:51:26;101726.94;;;15.87;100.00
48652;BME280;34442;52.362;-1.302;2023-05-25T11:53:52;101721.28;;;15.75;100.00
48652;BME280;34442;52.362;-1.302;2023-05-25T11:56:18;101712.56;;;15.93;100.00
48652;BME280;34442;52.362;-1.302;2023-05-25T11:58:46;101711.06;;;16.10;100.00
48652;BME280;34442;52.362;-1.302;2023-05-25T12:01:19;101713.53;;;16.32;100.00
48652;BME280;34442;52.362;-1.302;2023-05-25T12:03:45;101711.88;;;16.24;100.00
48652;BME280;34442;52.362;-1.302;2023-05-25T12:08:54;101713.59;;;16.05;100.00
48652;BME280;34442;52.362;-1.302;2023-05-25T12:13:56;101712.06;;;16.36;100.00
48652;BME280;34442;52.362;-1.302;2023-05-25T12:16:22;101718.16;;;15.98;100.00
48652;BME280;34442;52.362;-1.302;2023-05-25T12:18:48;101723.16;;;16.08;100.00
48652;BME280;34442;52.362;-1.302;2023-05-25T12:21:14;101726.31;;;15.98;100.00
48652;BME280;34442;52.362;-1.302;2023-05-25T12:23:40;101729.00;;;15.92;100.00
48652;BME280;34442;52.362;-1.302;2023-05-25T12:26:11;101726.94;;;15.80;100.00
48652;BME280;34442;52.362;-1.302;2023-05-25T12:28:37;101727.75;;;15.74;100.00
48652;BME280;34442;52.362;-1.302;2023-05-25T12:31:21;101723.78;;;15.83;100.00
48652;BME280;34442;52.362;-1.302;2023-05-25T12:34:09;101721.91;;;16.04;100.00
48652;BME280;34442;52.362;-1.302;2023-05-25T12:36:40;101729.00;;;16.31;100.00
48652;BME280;34442;52.362;-1.302;2023-05-25T12:39:06;101727.34;;;16.17;100.00
48652;BME280;34442;52.362;-1.302;2023-05-25T12:41:49;101726.72;;;15.95;100.00
48652;BME280;34442;52.362;-1.302;2023-05-25T12:44:16;101727.13;;;16.12;100.00
48652;BME280;34442;52.362;-1.302;2023-05-25T12:46:42;101729.00;;;16.25;100.00
48652;BME280;34442;52.362;-1.302;2023-05-25T12:51:53;101736.50;;;16.36;100.00
48652;BME280;34442;52.362;-1.302;2023-05-25T12:57:07;101732.03;;;16.61;100.00
48652;BME280;34442;52.362;-1.302;2023-05-25T12:59:38;101735.63;;;16.55;100.00
48652;BME280;34442;52.362;-1.302;2023-05-25T13:02:04;101737.31;;;16.43;100.00
48652;BME280;34442;52.362;-1.302;2023-05-25T13:04:30;101735.88;;;16.27;100.00